ASN logo
ASN Wikibase Occurrence # 221588
Last updated: 17 February 2019
This information is added by users of ASN. Neither ASN nor the Flight Safety Foundation are responsible for the completeness or correctness of this information. If you feel this information is incomplete or incorrect, you can submit corrected information.

Date:05-FEB-2019
Time:19:57 UTC
Type:Silhouette image of generic BE30 model; specific model in this crash may look slightly different
Beechcraft 300 Super King Air
Owner/operator:Isgrowth Machine Inc
Registration: N6812W
C/n / msn: FA-38
Fatalities:Fatalities: 0 / Occupants:
Other fatalities:0
Aircraft damage: Minor
Location:Mankato Regional Airport (KMKT), Mankato, MN -   United States of America
Phase: Take off
Nature:Unknown
Departure airport:Mankato Municipal Airport, MN (MKT/KMKT)
Destination airport:
Narrative:
The aircraft experienced a runway overrun and subsequent nosegear collapse during an aborted takeoff attempt at Mankato Regional Airport (KMKT), Mankato, Minnesota. The airplane sustained undetermined damage and there were no reported injuries to the incident.

Weather about the time of the incident (1957Z):
KMKT 052009Z AUTO 05008KT 1 1/4SM -SN BR SCT014 BKN024 OVC035 M13/M16 A3009 RMK AO2 P0000 FZRANO
KMKT 051956Z AUTO 05007KT 3/4SM -SN BR SCT012 BKN017 OVC027 M13/M16 A3010 RMK AO2 SLP220 P0001 T11331156 FZRANO
KMKT 051948Z AUTO 06006KT 3/4SM -SN BR FEW008 BKN012 OVC022 M13/M16 A3010 RMK AO2 P0001 FZRANO

Sources:

http://www.keyc.com/story/39912311/plane-crashes-at-mankato-airport-no-injuries-reported
________________
https://registry.faa.gov/aircraftinquiry/NNum_Results.aspx?NNumbertxt=6812W%20
https://flightaware.com/photos/view/29032-9f5fa469eac5a5465a569faaadd6650c7a991e7a


Images:


Revision history:

Date/timeContributorUpdates
06-Feb-2019 00:00 Geno Added
06-Feb-2019 00:03 Geno Updated [Source]
06-Feb-2019 06:01 Iceman 29 Updated [Source, Embed code, Damage]
06-Feb-2019 17:03 harro Updated [Time, Embed code, Narrative, Photo]

Corrections or additions? ... Edit this accident description